sensor_id;sensor_type;location;lat;lon;timestamp;P1;durP1;ratioP1;P2;durP2;ratioP2
13386;SDS011;6763;48.524;9.044;2023-03-31T00:00:44;1.38;;;0.55;;
13386;SDS011;6763;48.524;9.044;2023-03-31T00:03:13;4.78;;;1.05;;
13386;SDS011;6763;48.524;9.044;2023-03-31T00:05:45;1.02;;;0.80;;
13386;SDS011;6763;48.524;9.044;2023-03-31T00:08:12;2.80;;;0.93;;
13386;SDS011;6763;48.524;9.044;2023-03-31T00:10:38;2.83;;;1.10;;
13386;SDS011;6763;48.524;9.044;2023-03-31T00:13:09;1.08;;;0.98;;
13386;SDS011;6763;48.524;9.044;2023-03-31T00:15:35;0.80;;;0.80;;
13386;SDS011;6763;48.524;9.044;2023-03-31T00:18:00;1.08;;;0.73;;
13386;SDS011;6763;48.524;9.044;2023-03-31T00:20:26;1.10;;;0.95;;
13386;SDS011;6763;48.524;9.044;2023-03-31T00:22:51;1.00;;;1.00;;
13386;SDS011;6763;48.524;9.044;2023-03-31T00:25:18;2.97;;;0.90;;
13386;SDS011;6763;48.524;9.044;2023-03-31T00:27:44;2.42;;;1.10;;
13386;SDS011;6763;48.524;9.044;2023-03-31T00:30:10;2.25;;;1.00;;
13386;SDS011;6763;48.524;9.044;2023-03-31T00:32:36;1.08;;;0.93;;
13386;SDS011;6763;48.524;9.044;2023-03-31T00:35:02;1.00;;;0.82;;
13386;SDS011;6763;48.524;9.044;2023-03-31T00:37:28;1.38;;;0.82;;
13386;SDS011;6763;48.524;9.044;2023-03-31T00:39:54;5.63;;;1.10;;
13386;SDS011;6763;48.524;9.044;2023-03-31T00:42:20;1.50;;;1.05;;
13386;SDS011;6763;48.524;9.044;2023-03-31T00:47:44;0.90;;;0.90;;
13386;SDS011;6763;48.524;9.044;2023-03-31T00:50:25;1.20;;;0.73;;
13386;SDS011;6763;48.524;9.044;2023-03-31T00:52:58;1.25;;;0.82;;
13386;SDS011;6763;48.524;9.044;2023-03-31T00:55:32;1.90;;;0.85;;
13386;SDS011;6763;48.524;9.044;2023-03-31T00:58:01;2.58;;;1.20;;
13386;SDS011;6763;48.524;9.044;2023-03-31T01:00:30;1.58;;;0.98;;
13386;SDS011;6763;48.524;9.044;2023-03-31T01:02:56;1.42;;;0.98;;
13386;SDS011;6763;48.524;9.044;2023-03-31T01:05:43;0.80;;;0.75;;
13386;SDS011;6763;48.524;9.044;2023-03-31T01:08:12;0.82;;;0.82;;
13386;SDS011;6763;48.524;9.044;2023-03-31T01:10:40;4.13;;;0.90;;
13386;SDS011;6763;48.524;9.044;2023-03-31T01:13:08;0.63;;;0.63;;
13386;SDS011;6763;48.524;9.044;2023-03-31T01:15:36;1.92;;;1.02;;
13386;SDS011;6763;48.524;9.044;2023-03-31T01:18:03;1.55;;;0.73;;
13386;SDS011;6763;48.524;9.044;2023-03-31T01:20:36;2.85;;;1.20;;
13386;SDS011;6763;48.524;9.044;2023-03-31T01:23:19;1.55;;;0.80;;
13386;SDS011;6763;48.524;9.044;2023-03-31T01:37:05;0.70;;;0.70;;
13386;SDS011;6763;48.524;9.044;2023-03-31T01:40:07;0.70;;;0.70;;
13386;SDS011;6763;48.524;9.044;2023-03-31T01:48:01;0.60;;;0.60;;
13386;SDS011;6763;48.524;9.044;2023-03-31T01:55:45;6.95;;;0.88;;
13386;SDS011;6763;48.524;9.044;2023-03-31T01:58:20;1.67;;;0.77;;
13386;SDS011;6763;48.524;9.044;2023-03-31T02:00:54;0.80;;;0.70;;
13386;SDS011;6763;48.524;9.044;2023-03-31T02:03:30;1.83;;;1.08;;
13386;SDS011;6763;48.524;9.044;2023-03-31T02:06:13;1.45;;;0.70;;
13386;SDS011;6763;48.524;9.044;2023-03-31T02:08:45;1.70;;;0.80;;
13386;SDS011;6763;48.524;9.044;2023-03-31T02:11:16;3.65;;;1.25;;
13386;SDS011;6763;48.524;9.044;2023-03-31T02:13:42;2.05;;;0.90;;
13386;SDS011;6763;48.524;9.044;2023-03-31T02:16:12;2.53;;;0.90;;
13386;SDS011;6763;48.524;9.044;2023-03-31T02:18:45;0.93;;;0.93;;
13386;SDS011;6763;48.524;9.044;2023-03-31T02:21:14;4.13;;;1.02;;
13386;SDS011;6763;48.524;9.044;2023-03-31T02:23:41;2.05;;;0.80;;
13386;SDS011;6763;48.524;9.044;2023-03-31T02:26:09;2.15;;;1.20;;
13386;SDS011;6763;48.524;9.044;2023-03-31T02:28:38;0.65;;;0.65;;
13386;SDS011;6763;48.524;9.044;2023-03-31T02:34:07;0.82;;;0.82;;
13386;SDS011;6763;48.524;9.044;2023-03-31T02:36:33;4.32;;;1.27;;
13386;SDS011;6763;48.524;9.044;2023-03-31T02:39:02;0.90;;;0.90;;
13386;SDS011;6763;48.524;9.044;2023-03-31T02:41:31;4.78;;;1.20;;
13386;SDS011;6763;48.524;9.044;2023-03-31T02:43:56;0.68;;;0.68;;
13386;SDS011;6763;48.524;9.044;2023-03-31T02:46:22;5.93;;;1.20;;
13386;SDS011;6763;48.524;9.044;2023-03-31T02:48:49;1.17;;;0.90;;
13386;SDS011;6763;48.524;9.044;2023-03-31T02:51:32;2.63;;;0.82;;
13386;SDS011;6763;48.524;9.044;2023-03-31T02:57:16;0.73;;;0.73;;
13386;SDS011;6763;48.524;9.044;2023-03-31T03:03:18;2.10;;;1.20;;
13386;SDS011;6763;48.524;9.044;2023-03-31T03:11:51;4.72;;;1.30;;
13386;SDS011;6763;48.524;9.044;2023-03-31T03:14:48;1.13;;;0.90;;
13386;SDS011;6763;48.524;9.044;2023-03-31T03:17:26;1.13;;;1.02;;
13386;SDS011;6763;48.524;9.044;2023-03-31T03:19:58;2.38;;;1.20;;
13386;SDS011;6763;48.524;9.044;2023-03-31T03:22:26;4.22;;;1.20;;
13386;SDS011;6763;48.524;9.044;2023-03-31T03:24:51;2.13;;;0.80;;
13386;SDS011;6763;48.524;9.044;2023-03-31T03:27:17;2.85;;;1.02;;
13386;SDS011;6763;48.524;9.044;2023-03-31T03:29:46;1.60;;;0.98;;
13386;SDS011;6763;48.524;9.044;2023-03-31T03:32:11;0.90;;;0.90;;
13386;SDS011;6763;48.524;9.044;2023-03-31T03:34:36;1.65;;;1.10;;
13386;SDS011;6763;48.524;9.044;2023-03-31T03:37:02;1.17;;;1.08;;
13386;SDS011;6763;48.524;9.044;2023-03-31T03:39:27;3.28;;;1.30;;
13386;SDS011;6763;48.524;9.044;2023-03-31T03:41:53;3.28;;;0.90;;
13386;SDS011;6763;48.524;9.044;2023-03-31T03:44:18;1.05;;;0.95;;
13386;SDS011;6763;48.524;9.044;2023-03-31T03:46:43;2.47;;;1.10;;
13386;SDS011;6763;48.524;9.044;2023-03-31T03:49:09;1.90;;;1.15;;
13386;SDS011;6763;48.524;9.044;2023-03-31T03:51:34;2.30;;;1.15;;
13386;SDS011;6763;48.524;9.044;2023-03-31T03:54:00;2.42;;;1.65;;
13386;SDS011;6763;48.524;9.044;2023-03-31T03:56:25;1.25;;;1.08;;
13386;SDS011;6763;48.524;9.044;2023-03-31T03:58:51;2.28;;;1.38;;
13386;SDS011;6763;48.524;9.044;2023-03-31T04:01:16;2.30;;;1.23;;
13386;SDS011;6763;48.524;9.044;2023-03-31T04:03:42;3.33;;;1.27;;
13386;SDS011;6763;48.524;9.044;2023-03-31T04:06:07;4.65;;;1.75;;
13386;SDS011;6763;48.524;9.044;2023-03-31T04:08:33;1.55;;;1.42;;
13386;SDS011;6763;48.524;9.044;2023-03-31T04:10:58;3.38;;;1.70;;
13386;SDS011;6763;48.524;9.044;2023-03-31T04:13:23;2.40;;;1.60;;
13386;SDS011;6763;48.524;9.044;2023-03-31T04:15:49;1.48;;;1.30;;
13386;SDS011;6763;48.524;9.044;2023-03-31T04:18:14;1.25;;;1.15;;
13386;SDS011;6763;48.524;9.044;2023-03-31T04:20:46;2.13;;;1.30;;
13386;SDS011;6763;48.524;9.044;2023-03-31T04:25:58;1.48;;;1.17;;
13386;SDS011;6763;48.524;9.044;2023-03-31T04:28:25;1.38;;;1.27;;
13386;SDS011;6763;48.524;9.044;2023-03-31T04:30:59;1.52;;;1.38;;
13386;SDS011;6763;48.524;9.044;2023-03-31T04:33:25;4.47;;;0.90;;
13386;SDS011;6763;48.524;9.044;2023-03-31T04:35:51;1.45;;;1.33;;
13386;SDS011;6763;48.524;9.044;2023-03-31T04:38:17;2.63;;;1.20;;
13386;SDS011;6763;48.524;9.044;2023-03-31T04:40:47;2.42;;;1.65;;
13386;SDS011;6763;48.524;9.044;2023-03-31T04:43:15;1.38;;;1.08;;
13386;SDS011;6763;48.524;9.044;2023-03-31T04:45:41;3.42;;;1.45;;
13386;SDS011;6763;48.524;9.044;2023-03-31T04:48:06;1.55;;;1.38;;
13386;SDS011;6763;48.524;9.044;2023-03-31T04:50:32;2.10;;;1.88;;
13386;SDS011;6763;48.524;9.044;2023-03-31T04:52:58;3.00;;;1.83;;
13386;SDS011;6763;48.524;9.044;2023-03-31T04:55:23;3.08;;;1.48;;
13386;SDS011;6763;48.524;9.044;2023-03-31T04:57:49;3.33;;;1.42;;
13386;SDS011;6763;48.524;9.044;2023-03-31T05:00:15;2.25;;;2.00;;
13386;SDS011;6763;48.524;9.044;2023-03-31T05:02:42;3.55;;;1.90;;
13386;SDS011;6763;48.524;9.044;2023-03-31T05:05:07;1.95;;;1.65;;
13386;SDS011;6763;48.524;9.044;2023-03-31T05:07:34;1.60;;;1.50;;
13386;SDS011;6763;48.524;9.044;2023-03-31T05:09:59;2.90;;;1.40;;
13386;SDS011;6763;48.524;9.044;2023-03-31T05:12:25;7.65;;;1.75;;
13386;SDS011;6763;48.524;9.044;2023-03-31T05:14:50;5.70;;;1.27;;
13386;SDS011;6763;48.524;9.044;2023-03-31T05:17:15;1.25;;;1.13;;
13386;SDS011;6763;48.524;9.044;2023-03-31T05:19:41;3.05;;;1.80;;
13386;SDS011;6763;48.524;9.044;2023-03-31T05:22:07;4.40;;;1.90;;
13386;SDS011;6763;48.524;9.044;2023-03-31T05:24:32;2.72;;;1.50;;
13386;SDS011;6763;48.524;9.044;2023-03-31T05:26:58;5.95;;;1.85;;
13386;SDS011;6763;48.524;9.044;2023-03-31T05:29:23;1.58;;;1.42;;
13386;SDS011;6763;48.524;9.044;2023-03-31T05:31:48;2.13;;;1.60;;
13386;SDS011;6763;48.524;9.044;2023-03-31T05:34:14;2.58;;;1.83;;
13386;SDS011;6763;48.524;9.044;2023-03-31T05:36:41;6.25;;;1.88;;
13386;SDS011;6763;48.524;9.044;2023-03-31T05:39:07;4.15;;;1.30;;
13386;SDS011;6763;48.524;9.044;2023-03-31T05:41:33;1.83;;;1.73;;
13386;SDS011;6763;48.524;9.044;2023-03-31T05:43:59;5.50;;;1.90;;
13386;SDS011;6763;48.524;9.044;2023-03-31T05:46:24;2.45;;;1.40;;
13386;SDS011;6763;48.524;9.044;2023-03-31T05:48:50;3.38;;;1.70;;
13386;SDS011;6763;48.524;9.044;2023-03-31T05:51:16;1.25;;;1.13;;
13386;SDS011;6763;48.524;9.044;2023-03-31T05:53:41;2.20;;;1.55;;
13386;SDS011;6763;48.524;9.044;2023-03-31T05:56:07;1.95;;;1.27;;
13386;SDS011;6763;48.524;9.044;2023-03-31T05:58:33;3.38;;;1.60;;
13386;SDS011;6763;48.524;9.044;2023-03-31T06:01:00;2.67;;;1.45;;
13386;SDS011;6763;48.524;9.044;2023-03-31T06:03:31;2.90;;;1.10;;
13386;SDS011;6763;48.524;9.044;2023-03-31T06:05:57;3.72;;;1.30;;
13386;SDS011;6763;48.524;9.044;2023-03-31T06:08:23;1.30;;;1.20;;
13386;SDS011;6763;48.524;9.044;2023-03-31T06:10:48;3.30;;;1.17;;
13386;SDS011;6763;48.524;9.044;2023-03-31T06:13:14;4.93;;;1.40;;
13386;SDS011;6763;48.524;9.044;2023-03-31T06:15:40;1.45;;;1.35;;
13386;SDS011;6763;48.524;9.044;2023-03-31T06:18:06;5.07;;;1.50;;
13386;SDS011;6763;48.524;9.044;2023-03-31T06:20:34;3.90;;;1.55;;
13386;SDS011;6763;48.524;9.044;2023-03-31T06:23:00;1.77;;;1.67;;
13386;SDS011;6763;48.524;9.044;2023-03-31T06:25:25;2.85;;;1.60;;
13386;SDS011;6763;48.524;9.044;2023-03-31T06:27:51;1.40;;;1.30;;
13386;SDS011;6763;48.524;9.044;2023-03-31T06:30:16;1.60;;;1.30;;
13386;SDS011;6763;48.524;9.044;2023-03-31T06:32:42;7.00;;;1.17;;
13386;SDS011;6763;48.524;9.044;2023-03-31T06:35:07;1.88;;;1.45;;
13386;SDS011;6763;48.524;9.044;2023-03-31T06:37:32;8.15;;;1.80;;
13386;SDS011;6763;48.524;9.044;2023-03-31T06:39:58;1.58;;;1.48;;
13386;SDS011;6763;48.524;9.044;2023-03-31T06:42:23;2.97;;;1.95;;
13386;SDS011;6763;48.524;9.044;2023-03-31T06:44:49;3.00;;;2.25;;
13386;SDS011;6763;48.524;9.044;2023-03-31T06:47:14;4.50;;;1.40;;
13386;SDS011;6763;48.524;9.044;2023-03-31T06:49:40;1.50;;;1.35;;
13386;SDS011;6763;48.524;9.044;2023-03-31T06:52:05;3.13;;;2.08;;
13386;SDS011;6763;48.524;9.044;2023-03-31T06:54:30;2.38;;;1.92;;
13386;SDS011;6763;48.524;9.044;2023-03-31T06:56:56;3.97;;;1.95;;
13386;SDS011;6763;48.524;9.044;2023-03-31T06:59:21;2.22;;;1.45;;
13386;SDS011;6763;48.524;9.044;2023-03-31T07:01:47;1.67;;;1.58;;
13386;SDS011;6763;48.524;9.044;2023-03-31T07:04:14;1.95;;;1.38;;
13386;SDS011;6763;48.524;9.044;2023-03-31T07:06:40;1.77;;;1.67;;
13386;SDS011;6763;48.524;9.044;2023-03-31T07:09:05;2.80;;;1.55;;
13386;SDS011;6763;48.524;9.044;2023-03-31T07:11:31;1.65;;;1.52;;
13386;SDS011;6763;48.524;9.044;2023-03-31T07:13:56;1.10;;;0.80;;
13386;SDS011;6763;48.524;9.044;2023-03-31T07:16:21;2.40;;;1.20;;
13386;SDS011;6763;48.524;9.044;2023-03-31T07:18:47;2.35;;;1.20;;
13386;SDS011;6763;48.524;9.044;2023-03-31T07:21:14;1.13;;;1.02;;
13386;SDS011;6763;48.524;9.044;2023-03-31T07:23:40;0.70;;;0.70;;
13386;SDS011;6763;48.524;9.044;2023-03-31T07:26:05;0.65;;;0.65;;
13386;SDS011;6763;48.524;9.044;2023-03-31T07:28:31;0.73;;;0.73;;
13386;SDS011;6763;48.524;9.044;2023-03-31T07:30:56;0.35;;;0.35;;
13386;SDS011;6763;48.524;9.044;2023-03-31T07:33:22;0.80;;;0.80;;
13386;SDS011;6763;48.524;9.044;2023-03-31T07:35:47;1.17;;;0.93;;
13386;SDS011;6763;48.524;9.044;2023-03-31T07:38:13;1.23;;;0.77;;
13386;SDS011;6763;48.524;9.044;2023-03-31T07:40:39;0.63;;;0.60;;
13386;SDS011;6763;48.524;9.044;2023-03-31T07:43:05;2.65;;;0.75;;
13386;SDS011;6763;48.524;9.044;2023-03-31T07:45:31;0.60;;;0.60;;
13386;SDS011;6763;48.524;9.044;2023-03-31T07:47:58;0.75;;;0.75;;
13386;SDS011;6763;48.524;9.044;2023-03-31T07:50:24;3.17;;;0.70;;
13386;SDS011;6763;48.524;9.044;2023-03-31T07:52:50;1.27;;;0.60;;
13386;SDS011;6763;48.524;9.044;2023-03-31T07:55:16;1.42;;;0.75;;
13386;SDS011;6763;48.524;9.044;2023-03-31T07:57:42;1.73;;;0.50;;
13386;SDS011;6763;48.524;9.044;2023-03-31T08:00:08;1.02;;;0.80;;
13386;SDS011;6763;48.524;9.044;2023-03-31T08:02:36;0.73;;;0.73;;
13386;SDS011;6763;48.524;9.044;2023-03-31T08:05:02;0.40;;;0.40;;
13386;SDS011;6763;48.524;9.044;2023-03-31T08:07:28;4.00;;;0.65;;
13386;SDS011;6763;48.524;9.044;2023-03-31T08:09:55;0.70;;;0.50;;
13386;SDS011;6763;48.524;9.044;2023-03-31T08:12:21;0.57;;;0.57;;
13386;SDS011;6763;48.524;9.044;2023-03-31T08:14:46;0.43;;;0.43;;
13386;SDS011;6763;48.524;9.044;2023-03-31T08:17:12;0.30;;;0.30;;
13386;SDS011;6763;48.524;9.044;2023-03-31T08:19:38;2.92;;;1.00;;
13386;SDS011;6763;48.524;9.044;2023-03-31T08:22:03;0.35;;;0.35;;
13386;SDS011;6763;48.524;9.044;2023-03-31T08:24:28;0.30;;;0.30;;
13386;SDS011;6763;48.524;9.044;2023-03-31T08:26:54;0.52;;;0.40;;
13386;SDS011;6763;48.524;9.044;2023-03-31T08:29:19;0.40;;;0.40;;
13386;SDS011;6763;48.524;9.044;2023-03-31T08:31:45;0.40;;;0.40;;
13386;SDS011;6763;48.524;9.044;2023-03-31T08:34:10;0.50;;;0.50;;
13386;SDS011;6763;48.524;9.044;2023-03-31T08:36:36;0.68;;;0.50;;
13386;SDS011;6763;48.524;9.044;2023-03-31T08:39:01;0.40;;;0.40;;
13386;SDS011;6763;48.524;9.044;2023-03-31T08:44:34;0.40;;;0.40;;
13386;SDS011;6763;48.524;9.044;2023-03-31T08:47:03;0.38;;;0.35;;
13386;SDS011;6763;48.524;9.044;2023-03-31T08:49:53;0.47;;;0.47;;
13386;SDS011;6763;48.524;9.044;2023-03-31T08:52:26;0.43;;;0.43;;
13386;SDS011;6763;48.524;9.044;2023-03-31T08:55:07;0.30;;;0.30;;
13386;SDS011;6763;48.524;9.044;2023-03-31T08:57:52;0.22;;;0.22;;
13386;SDS011;6763;48.524;9.044;2023-03-31T09:00:24;0.98;;;0.40;;
13386;SDS011;6763;48.524;9.044;2023-03-31T09:03:25;0.38;;;0.38;;
13386;SDS011;6763;48.524;9.044;2023-03-31T09:11:08;0.40;;;0.40;;
13386;SDS011;6763;48.524;9.044;2023-03-31T09:19:14;0.68;;;0.40;;
13386;SDS011;6763;48.524;9.044;2023-03-31T09:21:48;0.25;;;0.25;;
13386;SDS011;6763;48.524;9.044;2023-03-31T09:24:18;0.10;;;0.10;;
13386;SDS011;6763;48.524;9.044;2023-03-31T09:29:14;0.40;;;0.40;;
13386;SDS011;6763;48.524;9.044;2023-03-31T09:31:43;0.88;;;0.70;;
13386;SDS011;6763;48.524;9.044;2023-03-31T09:34:29;0.80;;;0.60;;
13386;SDS011;6763;48.524;9.044;2023-03-31T09:36:58;0.10;;;0.10;;
13386;SDS011;6763;48.524;9.044;2023-03-31T09:39:23;1.77;;;0.52;;
13386;SDS011;6763;48.524;9.044;2023-03-31T09:41:49;0.25;;;0.25;;
13386;SDS011;6763;48.524;9.044;2023-03-31T09:46:47;0.75;;;0.40;;
13386;SDS011;6763;48.524;9.044;2023-03-31T09:49:15;0.50;;;0.50;;
13386;SDS011;6763;48.524;9.044;2023-03-31T09:51:44;0.40;;;0.40;;
13386;SDS011;6763;48.524;9.044;2023-03-31T09:54:15;0.20;;;0.20;;
13386;SDS011;6763;48.524;9.044;2023-03-31T09:59:18;0.80;;;0.50;;
13386;SDS011;6763;48.524;9.044;2023-03-31T10:01:56;1.25;;;0.57;;
13386;SDS011;6763;48.524;9.044;2023-03-31T10:04:25;1.10;;;0.43;;
13386;SDS011;6763;48.524;9.044;2023-03-31T10:06:53;0.40;;;0.40;;
13386;SDS011;6763;48.524;9.044;2023-03-31T10:09:20;0.20;;;0.20;;
13386;SDS011;6763;48.524;9.044;2023-03-31T10:11:53;0.40;;;0.25;;
13386;SDS011;6763;48.524;9.044;2023-03-31T10:14:31;0.68;;;0.45;;
13386;SDS011;6763;48.524;9.044;2023-03-31T10:17:03;0.95;;;0.50;;
13386;SDS011;6763;48.524;9.044;2023-03-31T10:19:31;0.30;;;0.30;;
13386;SDS011;6763;48.524;9.044;2023-03-31T10:22:00;0.85;;;0.55;;
13386;SDS011;6763;48.524;9.044;2023-03-31T10:24:45;0.80;;;0.40;;
13386;SDS011;6763;48.524;9.044;2023-03-31T10:27:29;1.10;;;0.73;;
13386;SDS011;6763;48.524;9.044;2023-03-31T10:29:57;0.57;;;0.40;;
13386;SDS011;6763;48.524;9.044;2023-03-31T10:32:27;0.20;;;0.20;;
13386;SDS011;6763;48.524;9.044;2023-03-31T10:38:03;1.30;;;0.60;;
13386;SDS011;6763;48.524;9.044;2023-03-31T10:40:34;0.55;;;0.50;;
13386;SDS011;6763;48.524;9.044;2023-03-31T10:43:02;5.05;;;0.70;;
13386;SDS011;6763;48.524;9.044;2023-03-31T10:45:40;1.75;;;0.57;;
13386;SDS011;6763;48.524;9.044;2023-03-31T10:48:15;0.77;;;0.30;;
13386;SDS011;6763;48.524;9.044;2023-03-31T10:50:44;0.25;;;0.25;;
13386;SDS011;6763;48.524;9.044;2023-03-31T10:53:10;0.57;;;0.45;;
13386;SDS011;6763;48.524;9.044;2023-03-31T10:55:45;0.30;;;0.30;;
13386;SDS011;6763;48.524;9.044;2023-03-31T10:58:19;0.63;;;0.40;;
13386;SDS011;6763;48.524;9.044;2023-03-31T11:01:15;0.30;;;0.30;;
13386;SDS011;6763;48.524;9.044;2023-03-31T11:12:07;1.75;;;0.55;;
13386;SDS011;6763;48.524;9.044;2023-03-31T11:18:05;4.68;;;1.60;;
13386;SDS011;6763;48.524;9.044;2023-03-31T11:21:07;0.20;;;0.20;;
13386;SDS011;6763;48.524;9.044;2023-03-31T11:26:15;0.30;;;0.30;;
13386;SDS011;6763;48.524;9.044;2023-03-31T11:31:44;0.30;;;0.30;;
13386;SDS011;6763;48.524;9.044;2023-03-31T11:34:34;2.40;;;0.50;;
13386;SDS011;6763;48.524;9.044;2023-03-31T11:40:25;0.30;;;0.30;;
13386;SDS011;6763;48.524;9.044;2023-03-31T11:45:36;0.50;;;0.50;;
13386;SDS011;6763;48.524;9.044;2023-03-31T11:48:06;0.30;;;0.30;;
13386;SDS011;6763;48.524;9.044;2023-03-31T11:50:41;0.30;;;0.30;;
13386;SDS011;6763;48.524;9.044;2023-03-31T11:55:41;1.25;;;0.30;;
13386;SDS011;6763;48.524;9.044;2023-03-31T11:58:19;0.40;;;0.40;;
13386;SDS011;6763;48.524;9.044;2023-03-31T12:06:02;0.40;;;0.40;;
13386;SDS011;6763;48.524;9.044;2023-03-31T12:08:42;0.30;;;0.30;;
13386;SDS011;6763;48.524;9.044;2023-03-31T12:11:23;0.30;;;0.30;;
13386;SDS011;6763;48.524;9.044;2023-03-31T12:14:03;0.35;;;0.35;;
13386;SDS011;6763;48.524;9.044;2023-03-31T12:16:40;0.57;;;0.40;;
13386;SDS011;6763;48.524;9.044;2023-03-31T12:22:09;0.68;;;0.68;;
13386;SDS011;6763;48.524;9.044;2023-03-31T12:24:44;0.40;;;0.40;;
13386;SDS011;6763;48.524;9.044;2023-03-31T12:27:18;0.85;;;0.40;;
13386;SDS011;6763;48.524;9.044;2023-03-31T12:29:54;0.30;;;0.30;;
13386;SDS011;6763;48.524;9.044;2023-03-31T12:32:29;0.20;;;0.20;;
13386;SDS011;6763;48.524;9.044;2023-03-31T12:35:13;0.15;;;0.15;;
13386;SDS011;6763;48.524;9.044;2023-03-31T12:40:17;0.10;;;0.10;;
13386;SDS011;6763;48.524;9.044;2023-03-31T12:43:08;0.65;;;0.47;;
13386;SDS011;6763;48.524;9.044;2023-03-31T12:48:26;0.20;;;0.20;;
13386;SDS011;6763;48.524;9.044;2023-03-31T12:54:04;0.30;;;0.30;;
13386;SDS011;6763;48.524;9.044;2023-03-31T12:57:18;0.30;;;0.30;;
13386;SDS011;6763;48.524;9.044;2023-03-31T12:59:31;1.52;;;0.60;;
13386;SDS011;6763;48.524;9.044;2023-03-31T13:04:39;0.40;;;0.40;;
13386;SDS011;6763;48.524;9.044;2023-03-31T13:07:12;0.30;;;0.30;;
13386;SDS011;6763;48.524;9.044;2023-03-31T13:09:58;2.28;;;0.77;;
13386;SDS011;6763;48.524;9.044;2023-03-31T13:13:03;1.70;;;0.65;;
13386;SDS011;6763;48.524;9.044;2023-03-31T13:15:36;1.02;;;0.32;;
13386;SDS011;6763;48.524;9.044;2023-03-31T13:18:02;0.30;;;0.30;;
13386;SDS011;6763;48.524;9.044;2023-03-31T13:20:30;1.23;;;0.30;;
13386;SDS011;6763;48.524;9.044;2023-03-31T13:23:00;0.45;;;0.40;;
13386;SDS011;6763;48.524;9.044;2023-03-31T13:25:44;0.30;;;0.30;;
13386;SDS011;6763;48.524;9.044;2023-03-31T13:30:55;0.88;;;0.50;;
13386;SDS011;6763;48.524;9.044;2023-03-31T13:33:32;0.30;;;0.30;;
13386;SDS011;6763;48.524;9.044;2023-03-31T13:41:22;0.40;;;0.40;;
13386;SDS011;6763;48.524;9.044;2023-03-31T13:44:03;0.30;;;0.30;;
13386;SDS011;6763;48.524;9.044;2023-03-31T13:52:18;0.88;;;0.57;;
13386;SDS011;6763;48.524;9.044;2023-03-31T13:57:47;0.73;;;0.38;;
13386;SDS011;6763;48.524;9.044;2023-03-31T14:00:24;0.30;;;0.30;;
13386;SDS011;6763;48.524;9.044;2023-03-31T14:05:38;0.30;;;0.30;;
13386;SDS011;6763;48.524;9.044;2023-03-31T14:08:24;0.40;;;0.40;;
13386;SDS011;6763;48.524;9.044;2023-03-31T14:13:43;0.15;;;0.15;;
13386;SDS011;6763;48.524;9.044;2023-03-31T14:16:08;0.25;;;0.25;;
13386;SDS011;6763;48.524;9.044;2023-03-31T14:18:35;0.30;;;0.30;;
13386;SDS011;6763;48.524;9.044;2023-03-31T14:26:43;1.88;;;0.40;;
13386;SDS011;6763;48.524;9.044;2023-03-31T14:29:18;0.43;;;0.43;;
13386;SDS011;6763;48.524;9.044;2023-03-31T14:32:11;0.47;;;0.47;;
13386;SDS011;6763;48.524;9.044;2023-03-31T14:34:44;0.40;;;0.40;;
13386;SDS011;6763;48.524;9.044;2023-03-31T14:37:18;0.55;;;0.50;;
13386;SDS011;6763;48.524;9.044;2023-03-31T14:39:48;0.38;;;0.38;;
13386;SDS011;6763;48.524;9.044;2023-03-31T14:42:17;0.25;;;0.25;;
13386;SDS011;6763;48.524;9.044;2023-03-31T14:44:45;0.80;;;0.40;;
13386;SDS011;6763;48.524;9.044;2023-03-31T14:47:25;1.02;;;0.30;;
13386;SDS011;6763;48.524;9.044;2023-03-31T14:49:58;0.30;;;0.30;;
13386;SDS011;6763;48.524;9.044;2023-03-31T14:52:27;0.30;;;0.30;;
13386;SDS011;6763;48.524;9.044;2023-03-31T14:54:55;0.65;;;0.38;;
13386;SDS011;6763;48.524;9.044;2023-03-31T14:57:24;0.57;;;0.30;;
13386;SDS011;6763;48.524;9.044;2023-03-31T14:59:54;0.43;;;0.38;;
13386;SDS011;6763;48.524;9.044;2023-03-31T15:02:33;0.32;;;0.32;;
13386;SDS011;6763;48.524;9.044;2023-03-31T15:05:04;0.20;;;0.20;;
13386;SDS011;6763;48.524;9.044;2023-03-31T15:07:33;0.30;;;0.30;;
13386;SDS011;6763;48.524;9.044;2023-03-31T15:10:00;0.30;;;0.30;;
13386;SDS011;6763;48.524;9.044;2023-03-31T15:12:27;0.30;;;0.30;;
13386;SDS011;6763;48.524;9.044;2023-03-31T15:14:54;0.20;;;0.20;;
13386;SDS011;6763;48.524;9.044;2023-03-31T15:17:29;0.45;;;0.35;;
13386;SDS011;6763;48.524;9.044;2023-03-31T15:19:59;1.35;;;0.50;;
13386;SDS011;6763;48.524;9.044;2023-03-31T15:22:28;0.30;;;0.30;;
13386;SDS011;6763;48.524;9.044;2023-03-31T15:24:54;2.85;;;0.40;;
13386;SDS011;6763;48.524;9.044;2023-03-31T15:29:50;0.70;;;0.43;;
13386;SDS011;6763;48.524;9.044;2023-03-31T15:34:51;0.30;;;0.30;;
13386;SDS011;6763;48.524;9.044;2023-03-31T15:37:23;0.32;;;0.32;;
13386;SDS011;6763;48.524;9.044;2023-03-31T15:39:51;0.43;;;0.35;;
13386;SDS011;6763;48.524;9.044;2023-03-31T15:42:20;0.30;;;0.30;;
13386;SDS011;6763;48.524;9.044;2023-03-31T15:44:46;1.80;;;0.40;;
13386;SDS011;6763;48.524;9.044;2023-03-31T15:47:19;0.40;;;0.40;;
13386;SDS011;6763;48.524;9.044;2023-03-31T15:52:37;0.32;;;0.30;;
13386;SDS011;6763;48.524;9.044;2023-03-31T15:55:43;1.17;;;0.52;;
13386;SDS011;6763;48.524;9.044;2023-03-31T15:58:05;0.30;;;0.30;;
13386;SDS011;6763;48.524;9.044;2023-03-31T16:00:41;0.40;;;0.35;;
13386;SDS011;6763;48.524;9.044;2023-03-31T16:08:28;0.45;;;0.45;;
13386;SDS011;6763;48.524;9.044;2023-03-31T16:11:11;0.20;;;0.20;;
13386;SDS011;6763;48.524;9.044;2023-03-31T16:13:42;0.43;;;0.35;;
13386;SDS011;6763;48.524;9.044;2023-03-31T16:16:14;0.30;;;0.30;;
13386;SDS011;6763;48.524;9.044;2023-03-31T16:19:04;0.40;;;0.40;;
13386;SDS011;6763;48.524;9.044;2023-03-31T16:21:35;1.85;;;0.40;;
13386;SDS011;6763;48.524;9.044;2023-03-31T16:24:06;0.45;;;0.45;;
13386;SDS011;6763;48.524;9.044;2023-03-31T16:26:32;0.70;;;0.70;;
13386;SDS011;6763;48.524;9.044;2023-03-31T16:28:59;0.80;;;0.50;;
13386;SDS011;6763;48.524;9.044;2023-03-31T16:31:38;0.45;;;0.40;;
13386;SDS011;6763;48.524;9.044;2023-03-31T16:34:05;0.40;;;0.40;;
13386;SDS011;6763;48.524;9.044;2023-03-31T16:36:32;0.68;;;0.43;;
13386;SDS011;6763;48.524;9.044;2023-03-31T16:39:00;0.70;;;0.60;;
13386;SDS011;6763;48.524;9.044;2023-03-31T16:41:29;0.40;;;0.40;;
13386;SDS011;6763;48.524;9.044;2023-03-31T16:43:56;0.50;;;0.50;;
13386;SDS011;6763;48.524;9.044;2023-03-31T16:46:22;0.40;;;0.40;;
13386;SDS011;6763;48.524;9.044;2023-03-31T16:48:48;0.40;;;0.40;;
13386;SDS011;6763;48.524;9.044;2023-03-31T16:51:13;0.43;;;0.43;;
13386;SDS011;6763;48.524;9.044;2023-03-31T16:53:40;0.35;;;0.35;;
13386;SDS011;6763;48.524;9.044;2023-03-31T16:56:06;0.40;;;0.40;;
13386;SDS011;6763;48.524;9.044;2023-03-31T16:58:32;0.40;;;0.40;;
13386;SDS011;6763;48.524;9.044;2023-03-31T17:00:58;0.40;;;0.40;;
13386;SDS011;6763;48.524;9.044;2023-03-31T17:03:24;1.75;;;0.73;;
13386;SDS011;6763;48.524;9.044;2023-03-31T17:05:51;1.02;;;0.32;;
13386;SDS011;6763;48.524;9.044;2023-03-31T17:08:21;0.40;;;0.40;;
13386;SDS011;6763;48.524;9.044;2023-03-31T17:10:49;0.40;;;0.40;;
13386;SDS011;6763;48.524;9.044;2023-03-31T17:13:18;0.40;;;0.40;;
13386;SDS011;6763;48.524;9.044;2023-03-31T17:15:44;0.52;;;0.52;;
13386;SDS011;6763;48.524;9.044;2023-03-31T17:18:10;0.30;;;0.30;;
13386;SDS011;6763;48.524;9.044;2023-03-31T17:20:35;0.40;;;0.40;;
13386;SDS011;6763;48.524;9.044;2023-03-31T17:23:01;3.42;;;0.60;;
13386;SDS011;6763;48.524;9.044;2023-03-31T17:25:26;0.40;;;0.40;;
13386;SDS011;6763;48.524;9.044;2023-03-31T17:27:52;3.28;;;0.57;;
13386;SDS011;6763;48.524;9.044;2023-03-31T17:30:19;9.82;;;3.15;;
13386;SDS011;6763;48.524;9.044;2023-03-31T17:32:46;13.77;;;4.70;;
13386;SDS011;6763;48.524;9.044;2023-03-31T17:35:12;11.10;;;3.83;;
13386;SDS011;6763;48.524;9.044;2023-03-31T17:37:44;5.40;;;2.30;;
13386;SDS011;6763;48.524;9.044;2023-03-31T17:40:10;2.80;;;0.82;;
13386;SDS011;6763;48.524;9.044;2023-03-31T17:42:36;2.38;;;0.40;;
13386;SDS011;6763;48.524;9.044;2023-03-31T17:45:02;0.68;;;0.68;;
13386;SDS011;6763;48.524;9.044;2023-03-31T17:47:29;0.60;;;0.60;;
13386;SDS011;6763;48.524;9.044;2023-03-31T17:49:56;0.38;;;0.38;;